Mehmet Bey — 9HUD6 — position and weather

sailwx.info

Track history (hours):
 
Tides and Currents Weather Stations Pressure Air Temp Water Temp Dewpoint Dewpoint Depression Visibility Wind Speed Wind Dir Waves Ship Positions

Mehmet Bey

Last reported at 2016-Apr-30 07:29 UTC. Time now 2016-May-02 01:24 UTC.
Position N 36°43' E 013°09'.

; draft 7.3 m.

Type: Cargo ship. MMSI: 248864000.

Date/timePositionNaut miles runAvg speedWind from/ knotsBaromVisibWave heightAir tempDewpointWater temp
2016-Apr-30 07:29N 36°43' E 013°09'9 8.8
2016-Apr-30 06:30N 36°40' E 013°19'25 8.7
2016-Apr-30 03:33N 36°33' E 013°50'8 8.4
2016-Apr-30 02:33N 36°31' E 013°60'8 8.5
2016-Apr-30 01:33N 36°29' E 014°10'9 8.7
2016-Apr-30 00:33N 36°26' E 014°21'7 7.1
2016-Apr-29 23:33N 36°25' E 014°29'8 8.1
2016-Apr-29 22:33N 36°23' E 014°39'9 8.1
2016-Apr-29 21:30N 36°20' E 014°49'8 7.9
2016-Apr-29 20:33N 36°18' E 014°58'8 7.6
2016-Apr-29 19:31N 36°16' E 015°07'190 8.6
2016-Apr-28 21:24N 36°19' E 019°03'8 9.2
2016-Apr-28 20:33N 36°18' E 019°13'11 9.3
2016-Apr-28 19:18N 36°19' E 019°27'8 9.0
2016-Apr-28 18:24N 36°19' E 019°37'178 8.5
2016-Apr-27 21:25N 36°30' E 023°18'9 9.1
2016-Apr-27 20:27N 36°37' E 023°24'8 8.5
2016-Apr-27 19:32N 36°44' E 023°29'8 7.9
2016-Apr-27 18:33N 36°50' E 023°35'9 8.6
2016-Apr-27 17:33N 36°57' E 023°43'337 7.4
2016-Apr-25 20:08N 40°54' E 028°50'5 7.7
2016-Apr-25 19:30N 40°57' E 028°54'0 0.0
2016-Apr-25 16:31N 40°57' E 028°54'0 0.0
2016-Apr-25 15:25N 40°57' E 028°54'0 0.0
2016-Apr-25 11:07N 40°57' E 028°54'0 0.0
2016-Apr-25 10:31N 40°57' E 028°54'0 0.0
2016-Apr-25 09:31N 40°57' E 028°54'0 0.0
2016-Apr-25 08:31N 40°57' E 028°54'0 0.0
2016-Apr-25 07:31N 40°57' E 028°54'0 0.0
2016-Apr-25 06:13N 40°57' E 028°54'0 0.0
2016-Apr-25 05:31N 40°57' E 028°54'0 0.0
2016-Apr-25 04:25N 40°57' E 028°54'0 0.0
2016-Apr-25 03:31N 40°57' E 028°54'0 0.0
2016-Apr-25 02:31N 40°57' E 028°54'0 0.0
2016-Apr-25 01:25N 40°57' E 028°54'0 0.0
2016-Apr-25 00:31N 40°57' E 028°54'0 0.0
2016-Apr-24 23:25N 40°57' E 028°54'2 2.3
2016-Apr-24 22:34N 40°58' E 028°57'147 7.3
2016-Apr-24 02:31N 43°21' E 029°42'182 7.8
2016-Apr-23 03:13N 46°15' E 030°54'6 8.8
2016-Apr-23 02:33N 46°21' E 030°55'8 8.5
2016-Apr-23 01:33N 46°29' E 030°55'6 6.3
2016-Apr-23 00:32N 46°34' E 031°02'8 8.1
2016-Apr-22 23:33N 46°35' E 031°13'8 8.4
2016-Apr-22 22:33N 46°35' E 031°26'8 7.7
2016-Apr-22 21:32N 46°35' E 031°37'8 8.2
2016-Apr-22 20:33N 46°36' E 031°49'7 7.1
2016-Apr-22 19:33N 46°41' E 031°56'7 6.8
2016-Apr-22 18:33N 46°47' E 031°53'7 7.2
2016-Apr-22 17:33N 46°53' E 031°60'4 3.5
2016-Apr-22 16:31N 46°57' E 032°01'0 0.0
2016-Apr-22 15:31N 46°57' E 032°01'0 0.0
2016-Apr-22 14:31N 46°57' E 032°01'0 0.0
2016-Apr-22 13:31N 46°57' E 032°01'0 0.0
2016-Apr-22 12:31N 46°57' E 032°01'0 0.0
2016-Apr-22 11:31N 46°57' E 032°01'0 0.0
2016-Apr-22 10:31N 46°57' E 032°01'0 0.0
2016-Apr-22 09:31N 46°57' E 032°01'0 0.0
2016-Apr-22 08:31N 46°57' E 032°01'0 0.0
2016-Apr-22 07:31N 46°57' E 032°01'0 0.0
2016-Apr-22 06:31N 46°57' E 032°01'0 0.0
2016-Apr-22 05:31N 46°57' E 032°01'0 0.0
2016-Apr-22 04:31N 46°57' E 032°01'0 0.0
2016-Apr-22 03:31N 46°57' E 032°01'0 0.0
2016-Apr-22 02:31N 46°57' E 032°01'0 0.0
2016-Apr-22 01:31N 46°57' E 032°01'0 0.0
2016-Apr-22 00:31N 46°57' E 032°01'0 0.0
2016-Apr-21 23:31N 46°57' E 032°01'0 0.0
2016-Apr-21 22:33N 46°57' E 032°01'0 0.0
2016-Apr-21 21:33N 46°57' E 032°01'0 0.0
2016-Apr-21 20:33N 46°57' E 032°01'0 0.0
2016-Apr-21 19:33N 46°57' E 032°01'0 0.0
2016-Apr-21 18:33N 46°57' E 032°01'0 0.0
2016-Apr-21 17:33N 46°57' E 032°01'0 0.0
2016-Apr-21 16:33N 46°57' E 032°01'0 0.0
2016-Apr-21 15:33N 46°57' E 032°01'0 0.0
2016-Apr-21 14:33N 46°57' E 032°01'0 0.0
2016-Apr-21 13:33N 46°57' E 032°01'0 0.0
2016-Apr-21 12:33N 46°57' E 032°01'0 0.0
2016-Apr-21 11:33N 46°57' E 032°01'0 0.0
2016-Apr-21 10:33N 46°57' E 032°01'0 0.0
2016-Apr-21 09:33N 46°57' E 032°01'0 0.0
2016-Apr-21 08:33N 46°57' E 032°01'0 0.0
2016-Apr-21 07:33N 46°57' E 032°01'0 0.0
2016-Apr-21 06:33N 46°57' E 032°01'0 0.0
2016-Apr-21 05:33N 46°57' E 032°01'0 0.0
2016-Apr-21 04:33N 46°57' E 032°01'0 0.0
2016-Apr-21 03:33N 46°57' E 032°01'0 0.0
2016-Apr-21 02:33N 46°57' E 032°01'0 0.0
2016-Apr-21 01:33N 46°57' E 032°01'0 0.0
2016-Apr-21 00:33N 46°57' E 032°01'0 0.0
2016-Apr-20 23:33N 46°57' E 032°01'0 0.0
2016-Apr-20 22:33N 46°57' E 032°01'0 0.0
2016-Apr-20 21:33N 46°57' E 032°01'0 0.0
2016-Apr-20 20:33N 46°57' E 032°01'0 0.0
2016-Apr-20 19:33N 46°57' E 032°01'0 0.0
2016-Apr-20 18:33N 46°57' E 032°01'0 0.0
2016-Apr-20 17:33N 46°57' E 032°01'0 0.0
2016-Apr-20 16:33N 46°57' E 032°01'0 0.0
2016-Apr-20 15:33N 46°57' E 032°01'0 0.0
2016-Apr-20 14:33N 46°57' E 032°01'0 0.0
2016-Apr-20 13:33N 46°57' E 032°01'0 0.0
2016-Apr-20 12:33N 46°57' E 032°01'0 0.0
2016-Apr-20 11:33N 46°57' E 032°01'0 0.0
2016-Apr-20 10:33N 46°57' E 032°01'0 0.0
2016-Apr-20 09:33N 46°57' E 032°01'0 0.0
2016-Apr-20 08:33N 46°57' E 032°01'0 0.0
2016-Apr-20 07:33N 46°57' E 032°01'  
Track history (hours):
 
Tides and Currents Weather Stations Pressure Air Temp Water Temp Dewpoint Dewpoint Depression Visibility Wind Speed Wind Dir Waves Ship Positions

Mehmet Bey

Last reported at 2016-Apr-30 07:29 UTC. Time now 2016-May-02 01:24 UTC.
Position N 36°43' E 013°09'.

; draft 7.3 m.

Type: Cargo ship. MMSI: 248864000.

Date/timePositionNaut miles runAvg speedWind from/ knotsBaromVisibWave heightAir tempDewpointWater temp
2016-Apr-30 07:29N 36°43' E 013°09'9 8.8
2016-Apr-30 06:30N 36°40' E 013°19'25 8.7
2016-Apr-30 03:33N 36°33' E 013°50'8 8.4
2016-Apr-30 02:33N 36°31' E 013°60'8 8.5
2016-Apr-30 01:33N 36°29' E 014°10'9 8.7
2016-Apr-30 00:33N 36°26' E 014°21'7 7.1
2016-Apr-29 23:33N 36°25' E 014°29'8 8.1
2016-Apr-29 22:33N 36°23' E 014°39'9 8.1
2016-Apr-29 21:30N 36°20' E 014°49'8 7.9
2016-Apr-29 20:33N 36°18' E 014°58'8 7.6
2016-Apr-29 19:31N 36°16' E 015°07'190 8.6
2016-Apr-28 21:24N 36°19' E 019°03'8 9.2
2016-Apr-28 20:33N 36°18' E 019°13'11 9.3
2016-Apr-28 19:18N 36°19' E 019°27'8 9.0
2016-Apr-28 18:24N 36°19' E 019°37'178 8.5
2016-Apr-27 21:25N 36°30' E 023°18'9 9.1
2016-Apr-27 20:27N 36°37' E 023°24'8 8.5
2016-Apr-27 19:32N 36°44' E 023°29'8 7.9
2016-Apr-27 18:33N 36°50' E 023°35'9 8.6
2016-Apr-27 17:33N 36°57' E 023°43'337 7.4
2016-Apr-25 20:08N 40°54' E 028°50'5 7.7
2016-Apr-25 19:30N 40°57' E 028°54'0 0.0
2016-Apr-25 16:31N 40°57' E 028°54'0 0.0
2016-Apr-25 15:25N 40°57' E 028°54'0 0.0
2016-Apr-25 11:07N 40°57' E 028°54'0 0.0
2016-Apr-25 10:31N 40°57' E 028°54'0 0.0
2016-Apr-25 09:31N 40°57' E 028°54'0 0.0
2016-Apr-25 08:31N 40°57' E 028°54'0 0.0
2016-Apr-25 07:31N 40°57' E 028°54'0 0.0
2016-Apr-25 06:13N 40°57' E 028°54'0 0.0
2016-Apr-25 05:31N 40°57' E 028°54'0 0.0
2016-Apr-25 04:25N 40°57' E 028°54'0 0.0
2016-Apr-25 03:31N 40°57' E 028°54'0 0.0
2016-Apr-25 02:31N 40°57' E 028°54'0 0.0
2016-Apr-25 01:25N 40°57' E 028°54'0 0.0
2016-Apr-25 00:31N 40°57' E 028°54'0 0.0
2016-Apr-24 23:25N 40°57' E 028°54'2 2.3
2016-Apr-24 22:34N 40°58' E 028°57'147 7.3
2016-Apr-24 02:31N 43°21' E 029°42'182 7.8
2016-Apr-23 03:13N 46°15' E 030°54'6 8.8
2016-Apr-23 02:33N 46°21' E 030°55'8 8.5
2016-Apr-23 01:33N 46°29' E 030°55'6 6.3
2016-Apr-23 00:32N 46°34' E 031°02'8 8.1
2016-Apr-22 23:33N 46°35' E 031°13'8 8.4
2016-Apr-22 22:33N 46°35' E 031°26'8 7.7
2016-Apr-22 21:32N 46°35' E 031°37'8 8.2
2016-Apr-22 20:33N 46°36' E 031°49'7 7.1
2016-Apr-22 19:33N 46°41' E 031°56'7 6.8
2016-Apr-22 18:33N 46°47' E 031°53'7 7.2
2016-Apr-22 17:33N 46°53' E 031°60'4 3.5
2016-Apr-22 16:31N 46°57' E 032°01'0 0.0
2016-Apr-22 15:31N 46°57' E 032°01'0 0.0
2016-Apr-22 14:31N 46°57' E 032°01'0 0.0
2016-Apr-22 13:31N 46°57' E 032°01'0 0.0
2016-Apr-22 12:31N 46°57' E 032°01'0 0.0
2016-Apr-22 11:31N 46°57' E 032°01'0 0.0
2016-Apr-22 10:31N 46°57' E 032°01'0 0.0
2016-Apr-22 09:31N 46°57' E 032°01'0 0.0
2016-Apr-22 08:31N 46°57' E 032°01'0 0.0
2016-Apr-22 07:31N 46°57' E 032°01'0 0.0
2016-Apr-22 06:31N 46°57' E 032°01'0 0.0
2016-Apr-22 05:31N 46°57' E 032°01'0 0.0
2016-Apr-22 04:31N 46°57' E 032°01'0 0.0
2016-Apr-22 03:31N 46°57' E 032°01'0 0.0
2016-Apr-22 02:31N 46°57' E 032°01'0 0.0
2016-Apr-22 01:31N 46°57' E 032°01'0 0.0
2016-Apr-22 00:31N 46°57' E 032°01'0 0.0
2016-Apr-21 23:31N 46°57' E 032°01'0 0.0
2016-Apr-21 22:33N 46°57' E 032°01'0 0.0
2016-Apr-21 21:33N 46°57' E 032°01'0 0.0
2016-Apr-21 20:33N 46°57' E 032°01'0 0.0
2016-Apr-21 19:33N 46°57' E 032°01'0 0.0
2016-Apr-21 18:33N 46°57' E 032°01'0 0.0
2016-Apr-21 17:33N 46°57' E 032°01'0 0.0
2016-Apr-21 16:33N 46°57' E 032°01'0 0.0
2016-Apr-21 15:33N 46°57' E 032°01'0 0.0
2016-Apr-21 14:33N 46°57' E 032°01'0 0.0
2016-Apr-21 13:33N 46°57' E 032°01'0 0.0
2016-Apr-21 12:33N 46°57' E 032°01'0 0.0
2016-Apr-21 11:33N 46°57' E 032°01'0 0.0
2016-Apr-21 10:33N 46°57' E 032°01'0 0.0
2016-Apr-21 09:33N 46°57' E 032°01'0 0.0
2016-Apr-21 08:33N 46°57' E 032°01'0 0.0
2016-Apr-21 07:33N 46°57' E 032°01'0 0.0
2016-Apr-21 06:33N 46°57' E 032°01'0 0.0
2016-Apr-21 05:33N 46°57' E 032°01'0 0.0
2016-Apr-21 04:33N 46°57' E 032°01'0 0.0
2016-Apr-21 03:33N 46°57' E 032°01'0 0.0
2016-Apr-21 02:33N 46°57' E 032°01'0 0.0
2016-Apr-21 01:33N 46°57' E 032°01'0 0.0
2016-Apr-21 00:33N 46°57' E 032°01'0 0.0
2016-Apr-20 23:33N 46°57' E 032°01'0 0.0
2016-Apr-20 22:33N 46°57' E 032°01'0 0.0
2016-Apr-20 21:33N 46°57' E 032°01'0 0.0
2016-Apr-20 20:33N 46°57' E 032°01'0 0.0
2016-Apr-20 19:33N 46°57' E 032°01'0 0.0
2016-Apr-20 18:33N 46°57' E 032°01'0 0.0
2016-Apr-20 17:33N 46°57' E 032°01'0 0.0
2016-Apr-20 16:33N 46°57' E 032°01'0 0.0
2016-Apr-20 15:33N 46°57' E 032°01'0 0.0
2016-Apr-20 14:33N 46°57' E 032°01'0 0.0
2016-Apr-20 13:33N 46°57' E 032°01'0 0.0
2016-Apr-20 12:33N 46°57' E 032°01'0 0.0
2016-Apr-20 11:33N 46°57' E 032°01'0 0.0
2016-Apr-20 10:33N 46°57' E 032°01'0 0.0
2016-Apr-20 09:33N 46°57' E 032°01'0 0.0
2016-Apr-20 08:33N 46°57' E 032°01'0 0.0
2016-Apr-20 07:33N 46°57' E 032°01'  

Dump ship's entire track history